메인 페이지
METAR-TAF:

METAR-TAF

공항 :

니노이 아키노 국제공항

마닐라, 필리핀

위도: 14-31N, 경도: 121-00E, 고도: 14m

현재 날씨관측

예보는 1 시간 10분 전, 14:00시(UTC)에 발표되었습니다.
동남동5kt동북동풍과 남남동풍을 오가는
온도 27°C
습도 66%
기압 1015 hPa
시정 10km 이상
고도 2500ft 상공 구름 조금

METAR: RPLL 261400Z 11005KT 070V150 9999 FEW025 27/20 Q1015 NOSIG RMK A2997

시각: 23:10 (15:10 UTC)

예보

예보는 4 시간 10분 전, 11:00시(UTC)에 발표되었습니다.
예보 대상 시간: 26일 12시부터 27일 18시까지 (UTC)
7kt
시정 10km 이상
고도 2500ft 상공 구름 조금
일시적
26일 12시부터 26일 18시까지 (UTC)
12kt
전환 중
26일 22시부터 26일 24시까지 (UTC)
동남동11kt
일시적
27일 00시부터 27일 06시까지 (UTC)
12kt, 순간 최대 풍속 23kt
일시적
27일 06시부터 27일 12시까지 (UTC)
15kt

TAF: RPLL 261100Z 2612/2718 10007KT 9999 FEW025 TX32/2706Z TN25/2621Z TEMPO 2612/2618 08012KT BECMG 2622/2624 11011KT TEMPO 2700/2706 09012G23KT TEMPO 2706/2712 08015KT

4,000개 이상의 공항 관측 자료 및 예보 (METAR 및 TAF 보고).

지도상에서 검색 가능한 기상관측소가 노란 점과 빨간 점으로 표시되어 있습니다.

기상관측소 명을 보려면 표시 위로 마우스를 이동하세요.

날씨 관측과 예보를 보려면 클릭하세요.

지도 변경 : 확대하려면 엑스 표시가 있는 녹색 버튼, 축소하려면 빼기 표시가 있는 녹색 버튼, 다음 페이지의 지도를 보려면 녹색 화살표를 클릭하세요.


METAR-TAF: